Time;durP1;ratioP1;P1;durP2;ratioP2;P2;SDS_P1;SDS_P2;PMS_P1;PMS_P2;Temp;Humidity;BMP_temperature;BMP_pressure;BME280_temperature;BME280_humidity;BME280_pressure;Samples;Min_cycle;Max_cycle;Signal;HPM_P1;HPM_P2
2020/12/25 00:00:23;;;;;;;1.20;1.20;;;3.10;99.90;;;;;;5040753;28;20179;-70
2020/12/25 00:02:49;;;;;;;1.20;1.20;;;3.10;99.90;;;;;;5042679;28;20268;-70
2020/12/25 00:05:14;;;;;;;1.20;1.20;;;3.10;99.90;;;;;;5040796;28;20185;-69
2020/12/25 00:07:40;;;;;;;1.03;1.03;;;3.10;99.90;;;;;;5045638;28;20188;-70
2020/12/25 00:10:06;;;;;;;1.50;1.40;;;3.00;99.90;;;;;;5040330;28;20909;-70
2020/12/25 00:12:31;;;;;;;1.20;1.20;;;3.00;99.90;;;;;;5036002;28;20227;-70
2020/12/25 00:14:57;;;;;;;1.23;1.13;;;3.00;99.90;;;;;;5038551;28;20219;-70
2020/12/25 00:17:22;;;;;;;1.57;1.50;;;3.00;99.90;;;;;;5037385;28;20240;-70
2020/12/25 00:19:48;;;;;;;1.17;1.17;;;3.00;99.90;;;;;;5040773;28;20186;-70
2020/12/25 00:22:14;;;;;;;1.37;1.37;;;3.00;99.90;;;;;;5041287;28;20232;-71
2020/12/25 00:24:40;;;;;;;1.30;1.20;;;3.00;99.90;;;;;;5035411;28;20614;-71
2020/12/25 00:27:06;;;;;;;1.40;1.30;;;3.10;99.90;;;;;;5039723;28;20195;-71
2020/12/25 00:29:31;;;;;;;1.07;1.07;;;3.10;99.90;;;;;;5034778;28;20189;-70
2020/12/25 00:31:57;;;;;;;1.10;1.10;;;3.10;99.90;;;;;;5029412;28;20218;-69
2020/12/25 00:34:23;;;;;;;1.17;1.17;;;3.10;99.90;;;;;;5042998;28;20183;-71
2020/12/25 00:36:48;;;;;;;1.07;1.07;;;3.10;99.90;;;;;;5038918;28;20234;-69
2020/12/25 00:39:16;;;;;;;1.43;1.33;;;3.20;99.90;;;;;;5033973;28;20198;-70
2020/12/25 00:41:43;;;;;;;1.30;1.27;;;3.20;99.90;;;;;;5047268;28;20197;-69
2020/12/25 00:44:09;;;;;;;1.80;1.70;;;3.20;99.90;;;;;;5046754;28;20280;-71
2020/12/25 00:46:35;;;;;;;1.70;1.60;;;3.20;99.90;;;;;;5027509;28;20576;-71
2020/12/25 00:49:01;;;;;;;1.50;1.40;;;3.20;99.90;;;;;;5039990;28;20193;-70
2020/12/25 00:51:26;;;;;;;1.70;1.60;;;3.20;99.90;;;;;;5042884;28;20211;-71
2020/12/25 00:53:52;;;;;;;1.60;1.50;;;3.20;99.90;;;;;;5037823;28;20220;-71
2020/12/25 00:56:18;;;;;;;1.50;1.40;;;3.20;99.90;;;;;;5047052;28;20190;-71
2020/12/25 00:58:44;;;;;;;1.80;1.60;;;3.20;99.90;;;;;;5049979;28;20223;-71
2020/12/25 01:01:12;;;;;;;1.50;1.50;;;3.20;99.90;;;;;;5049155;28;20186;-70
2020/12/25 01:03:38;;;;;;;1.60;1.50;;;3.20;99.90;;;;;;5065021;28;20222;-71
2020/12/25 01:06:13;;;;;;;1.80;1.70;;;3.20;99.90;;;;;;5059209;28;20246;-70
2020/12/25 01:08:39;;;;;;;1.77;1.67;;;3.20;99.90;;;;;;5062010;28;20229;-71
2020/12/25 01:11:06;;;;;;;1.90;1.80;;;3.10;99.90;;;;;;5056437;28;20250;-71
2020/12/25 01:13:33;;;;;;;1.90;1.80;;;3.10;99.90;;;;;;5046519;28;20212;-71
2020/12/25 01:16:06;;;;;;;2.00;1.90;;;3.10;99.90;;;;;;5046226;28;20189;-69
2020/12/25 01:18:33;;;;;;;1.90;1.80;;;3.10;99.90;;;;;;5038090;28;20205;-71
2020/12/25 01:20:59;;;;;;;1.83;1.73;;;3.20;99.90;;;;;;5046602;28;20188;-69
2020/12/25 01:23:25;;;;;;;1.43;1.43;;;3.20;99.90;;;;;;5041430;28;20201;-71
2020/12/25 01:25:51;;;;;;;2.07;1.97;;;3.10;99.90;;;;;;5026313;28;20190;-70
2020/12/25 01:28:17;;;;;;;1.87;1.77;;;3.10;99.90;;;;;;5042902;28;20229;-70
2020/12/25 01:30:43;;;;;;;1.83;1.73;;;3.10;99.90;;;;;;5043708;28;20183;-70
2020/12/25 01:33:09;;;;;;;1.80;1.70;;;3.10;99.90;;;;;;5047247;28;20206;-71
2020/12/25 01:35:35;;;;;;;2.07;1.97;;;3.10;99.90;;;;;;5045419;28;20663;-70
2020/12/25 01:38:00;;;;;;;1.70;1.60;;;3.10;99.90;;;;;;5045232;28;20184;-70
2020/12/25 01:40:26;;;;;;;2.00;1.90;;;3.00;99.90;;;;;;5058465;28;20224;-70
2020/12/25 01:42:51;;;;;;;2.00;1.90;;;3.00;99.90;;;;;;5052240;28;20213;-69
2020/12/25 01:45:17;;;;;;;2.00;1.90;;;3.00;99.90;;;;;;5043486;28;20187;-70
2020/12/25 01:47:43;;;;;;;1.90;1.80;;;3.00;99.90;;;;;;5027552;28;20675;-70
2020/12/25 01:50:09;;;;;;;2.40;2.30;;;3.00;99.90;;;;;;5045457;28;20201;-69
2020/12/25 01:52:36;;;;;;;2.33;2.13;;;2.90;99.90;;;;;;5045442;28;20729;-70
2020/12/25 01:55:04;;;;;;;2.00;1.90;;;3.00;99.90;;;;;;5047439;28;20314;-70
2020/12/25 01:57:30;;;;;;;2.40;2.20;;;3.00;99.90;;;;;;5031136;28;20296;-70
2020/12/25 01:59:57;;;;;;;2.10;2.00;;;3.00;99.90;;;;;;5038016;28;20732;-70
2020/12/25 02:02:24;;;;;;;2.37;2.17;;;3.00;99.90;;;;;;5042187;28;20202;-70
2020/12/25 02:04:51;;;;;;;2.70;2.50;;;3.00;99.90;;;;;;5029637;28;20202;-71
2020/12/25 02:07:16;;;;;;;2.13;2.03;;;3.00;99.90;;;;;;5044231;28;20666;-69
2020/12/25 02:09:42;;;;;;;2.47;2.33;;;3.10;99.90;;;;;;5021475;28;20185;-71
2020/12/25 02:12:08;;;;;;;2.20;2.10;;;3.10;99.90;;;;;;5045575;28;20565;-69
2020/12/25 02:14:33;;;;;;;2.80;2.50;;;3.20;99.90;;;;;;5042018;28;20181;-72
2020/12/25 02:16:59;;;;;;;3.57;3.27;;;3.20;99.90;;;;;;5042707;28;20262;-71
2020/12/25 02:19:24;;;;;;;3.83;3.27;;;3.20;99.90;;;;;;5039972;28;20265;-71
2020/12/25 02:21:50;;;;;;;3.83;3.53;;;3.20;99.90;;;;;;5038990;28;20189;-70
2020/12/25 02:24:16;;;;;;;4.10;3.70;;;3.20;99.90;;;;;;5041537;28;20202;-71
2020/12/25 02:26:41;;;;;;;4.10;3.80;;;3.30;99.90;;;;;;5045932;28;20190;-70
2020/12/25 02:29:07;;;;;;;4.87;4.47;;;3.30;99.90;;;;;;5036959;28;20189;-69
2020/12/25 02:31:32;;;;;;;4.57;4.10;;;3.30;99.90;;;;;;5041794;28;20196;-70
2020/12/25 02:33:58;;;;;;;5.00;4.57;;;3.30;99.90;;;;;;5042508;28;20197;-70
2020/12/25 02:36:24;;;;;;;5.37;4.93;;;3.30;99.90;;;;;;5042136;28;20303;-70
2020/12/25 02:38:49;;;;;;;4.90;4.40;;;3.30;99.90;;;;;;5041879;28;20219;-70
2020/12/25 02:41:15;;;;;;;5.47;4.60;;;3.30;99.90;;;;;;5019888;28;20201;-70
2020/12/25 02:43:40;;;;;;;6.63;4.50;;;3.30;99.90;;;;;;5036922;28;20229;-70
2020/12/25 02:46:06;;;;;;;5.53;4.87;;;3.30;99.90;;;;;;5045427;28;20550;-70
2020/12/25 02:48:32;;;;;;;4.57;4.27;;;3.30;99.90;;;;;;5039778;28;20263;-70
2020/12/25 02:50:57;;;;;;;5.20;4.70;;;3.30;99.90;;;;;;5039546;28;20191;-70
2020/12/25 02:53:23;;;;;;;6.17;4.53;;;3.40;99.90;;;;;;5040443;28;20553;-70
2020/12/25 02:55:48;;;;;;;5.93;5.33;;;3.40;99.90;;;;;;5038192;28;20189;-71
2020/12/25 02:58:14;;;;;;;6.10;5.50;;;3.40;99.90;;;;;;5044228;28;20180;-70
2020/12/25 03:00:39;;;;;;;5.70;5.20;;;3.40;99.90;;;;;;5041769;28;20192;-69
2020/12/25 03:03:05;;;;;;;6.40;5.70;;;3.30;99.90;;;;;;5025810;28;20673;-71
2020/12/25 03:05:31;;;;;;;6.07;5.57;;;3.40;99.90;;;;;;5036171;28;20209;-70
2020/12/25 03:07:56;;;;;;;6.40;5.37;;;3.40;99.90;;;;;;5045529;28;20181;-69
2020/12/25 03:10:22;;;;;;;6.00;5.33;;;3.40;99.90;;;;;;5042081;28;20180;-71
2020/12/25 03:12:47;;;;;;;6.00;5.27;;;3.40;99.90;;;;;;5021503;28;20205;-71
2020/12/25 03:15:13;;;;;;;6.53;5.93;;;3.40;99.90;;;;;;5042471;28;20179;-71
2020/12/25 03:17:38;;;;;;;5.83;5.33;;;3.40;99.90;;;;;;5036961;28;20181;-71
2020/12/25 03:23:26;;;;;;;5.43;4.93;;;3.40;99.90;;;;;;5028810;28;20238;-71
2020/12/25 03:25:52;;;;;;;7.03;5.23;;;3.40;99.90;;;;;;5045553;28;20218;-71
2020/12/25 03:28:17;;;;;;;6.23;5.63;;;3.40;99.90;;;;;;5039772;28;20200;-71
2020/12/25 03:30:43;;;;;;;7.47;5.83;;;3.40;99.90;;;;;;5038012;28;20183;-69
2020/12/25 03:33:09;;;;;;;7.07;6.07;;;3.40;99.90;;;;;;5043683;28;20668;-71
2020/12/25 03:35:34;;;;;;;6.17;5.67;;;3.40;99.90;;;;;;5026084;28;20194;-72
2020/12/25 03:38:00;;;;;;;7.40;5.80;;;3.40;99.90;;;;;;5040262;28;20186;-71
2020/12/25 03:40:26;;;;;;;5.90;5.40;;;3.40;99.90;;;;;;5038621;28;20571;-69
2020/12/25 03:42:51;;;;;;;5.10;4.57;;;3.50;99.90;;;;;;5039457;28;20229;-70
2020/12/25 03:45:17;;;;;;;6.10;5.33;;;3.50;99.90;;;;;;5037839;28;20231;-71
2020/12/25 03:47:42;;;;;;;6.40;5.70;;;3.40;99.90;;;;;;5043214;28;20189;-71
2020/12/25 03:50:08;;;;;;;6.50;5.63;;;3.40;99.90;;;;;;5038366;28;20542;-69
2020/12/25 03:52:34;;;;;;;6.03;5.23;;;3.40;99.90;;;;;;5040700;28;20244;-70
2020/12/25 03:54:59;;;;;;;5.50;5.00;;;3.40;99.90;;;;;;5038798;28;20190;-69
2020/12/25 03:57:25;;;;;;;5.77;5.27;;;3.50;99.90;;;;;;5040234;28;20263;-70
2020/12/25 03:59:50;;;;;;;6.00;5.43;;;3.50;99.90;;;;;;5041461;28;20721;-72
2020/12/25 04:02:16;;;;;;;5.73;5.23;;;3.50;99.90;;;;;;5042877;28;20213;-72
2020/12/25 04:04:41;;;;;;;6.13;5.43;;;3.50;99.90;;;;;;5038794;28;20196;-71
2020/12/25 04:07:07;;;;;;;6.60;5.87;;;3.50;99.90;;;;;;5040311;28;20194;-71
2020/12/25 04:09:33;;;;;;;6.67;6.07;;;3.50;99.90;;;;;;5038234;28;20194;-71
2020/12/25 04:11:58;;;;;;;6.53;5.70;;;3.50;99.90;;;;;;5019946;28;20204;-71
2020/12/25 04:14:24;;;;;;;6.80;6.07;;;3.50;99.90;;;;;;5041200;28;20535;-71
2020/12/25 04:16:49;;;;;;;6.17;5.57;;;3.60;99.90;;;;;;5041649;28;20214;-71
2020/12/25 04:19:15;;;;;;;6.50;6.00;;;3.50;99.90;;;;;;5045420;28;20193;-71
2020/12/25 04:21:41;;;;;;;6.37;5.73;;;3.50;99.90;;;;;;5044757;28;20194;-70
2020/12/25 04:24:07;;;;;;;7.73;6.70;;;3.60;99.90;;;;;;5043900;28;20215;-70
2020/12/25 04:26:32;;;;;;;7.03;6.43;;;3.50;99.90;;;;;;5021435;28;20739;-70
2020/12/25 04:28:58;;;;;;;5.97;5.47;;;3.50;99.90;;;;;;5030602;28;20236;-69
2020/12/25 04:31:28;;;;;;;6.17;5.50;;;3.60;99.90;;;;;;5043027;28;20269;-70
2020/12/25 04:33:55;;;;;;;6.50;5.90;;;3.50;99.90;;;;;;5044577;28;20687;-71
2020/12/25 04:36:20;;;;;;;5.67;5.17;;;3.50;99.90;;;;;;5039881;28;20185;-70
2020/12/25 04:38:46;;;;;;;5.90;5.40;;;3.50;99.90;;;;;;5037306;28;20213;-70
2020/12/25 04:41:12;;;;;;;6.20;5.60;;;3.50;99.90;;;;;;5041060;28;20258;-71
2020/12/25 04:43:40;;;;;;;5.30;4.80;;;3.50;99.90;;;;;;5041192;28;20307;-70
2020/12/25 04:46:09;;;;;;;5.50;5.00;;;3.50;99.90;;;;;;5044302;28;20214;-70
2020/12/25 04:48:39;;;;;;;6.65;6.15;;;3.50;99.90;;;;;;5044528;28;20415;-70
2020/12/25 04:51:05;;;;;;;5.83;5.33;;;3.50;99.90;;;;;;5041333;28;20237;-70
2020/12/25 04:53:31;;;;;;;5.90;5.40;;;3.50;99.90;;;;;;5046725;28;20211;-72
2020/12/25 04:55:57;;;;;;;5.20;4.80;;;3.50;99.90;;;;;;5042485;28;20181;-70
2020/12/25 04:58:23;;;;;;;5.20;4.80;;;3.50;99.90;;;;;;5046685;28;20654;-70
2020/12/25 05:01:06;;;;;;;5.93;5.43;;;3.50;99.90;;;;;;5043575;28;20238;-70
2020/12/25 05:03:35;;;;;;;5.43;4.93;;;3.50;99.90;;;;;;5045244;28;20196;-71
2020/12/25 05:06:06;;;;;;;5.10;4.57;;;3.50;99.90;;;;;;5047780;28;20253;-70
2020/12/25 05:08:43;;;;;;;5.47;4.97;;;3.50;99.90;;;;;;5042091;28;20530;-70
2020/12/25 05:11:10;;;;;;;5.30;4.90;;;3.50;99.90;;;;;;5046675;28;20200;-70
2020/12/25 05:13:48;;;;;;;4.53;4.23;;;3.50;99.90;;;;;;5038576;28;20706;-70
2020/12/25 05:16:14;;;;;;;4.70;4.40;;;3.50;99.90;;;;;;5047822;28;20258;-71
2020/12/25 05:18:43;;;;;;;4.67;4.30;;;3.50;99.90;;;;;;5040545;28;20263;-71
2020/12/25 05:21:11;;;;;;;4.83;4.43;;;3.50;99.90;;;;;;5048572;28;20184;-70
2020/12/25 05:23:38;;;;;;;4.40;4.10;;;3.50;99.90;;;;;;5044825;28;20215;-71
2020/12/25 05:26:06;;;;;;;5.00;4.50;;;3.40;99.90;;;;;;5042503;28;20195;-70
2020/12/25 05:28:44;;;;;;;5.30;4.90;;;3.40;99.90;;;;;;5027063;28;20190;-71
2020/12/25 05:31:11;;;;;;;4.77;4.37;;;3.40;99.90;;;;;;5039600;28;20202;-72
2020/12/25 05:33:37;;;;;;;5.33;4.83;;;3.50;99.90;;;;;;5045638;28;20188;-73
2020/12/25 05:36:06;;;;;;;5.13;4.73;;;3.40;99.90;;;;;;5041585;28;20186;-71
2020/12/25 05:38:32;;;;;;;5.13;4.73;;;3.40;99.90;;;;;;5043723;28;20727;-71
2020/12/25 05:41:01;;;;;;;4.93;4.57;;;3.50;99.90;;;;;;5043914;28;20212;-74
2020/12/25 05:43:27;;;;;;;5.20;4.67;;;3.50;99.90;;;;;;5041976;28;20231;-72
2020/12/25 05:45:53;;;;;;;5.00;4.60;;;3.40;99.90;;;;;;5035762;28;20662;-72
2020/12/25 05:48:18;;;;;;;5.50;5.00;;;3.50;99.90;;;;;;5054926;28;20180;-72
2020/12/25 05:50:44;;;;;;;5.50;5.10;;;3.40;99.90;;;;;;5059536;28;20206;-74
2020/12/25 05:53:10;;;;;;;5.57;5.10;;;3.50;99.90;;;;;;5038232;28;20216;-73
2020/12/25 05:55:37;;;;;;;5.30;4.90;;;3.40;99.90;;;;;;5043482;28;20219;-72
2020/12/25 05:58:04;;;;;;;5.93;5.43;;;3.40;99.90;;;;;;5044198;28;20572;-72
2020/12/25 06:00:33;;;;;;;5.17;4.73;;;3.40;99.90;;;;;;5025731;28;20186;-75
2020/12/25 06:02:59;;;;;;;6.30;5.70;;;3.50;99.90;;;;;;5045834;28;20213;-73
2020/12/25 06:05:26;;;;;;;5.30;4.80;;;3.50;99.90;;;;;;5042859;28;20199;-72
2020/12/25 06:07:54;;;;;;;5.07;4.67;;;3.50;99.90;;;;;;5044088;28;20203;-73
2020/12/25 06:10:24;;;;;;;5.60;5.10;;;3.40;99.90;;;;;;5036940;28;20191;-74
2020/12/25 06:12:51;;;;;;;6.03;5.53;;;3.40;99.90;;;;;;5044491;28;20288;-74
2020/12/25 06:15:26;;;;;;;6.27;5.67;;;3.40;99.90;;;;;;5046238;28;20179;-73
2020/12/25 06:18:11;;;;;;;6.73;6.13;;;3.40;99.90;;;;;;5044032;28;20275;-74
2020/12/25 06:20:58;;;;;;;6.70;6.10;;;3.40;99.90;;;;;;5029968;28;20190;-74
2020/12/25 06:23:26;;;;;;;6.27;5.77;;;3.40;99.90;;;;;;5036507;28;20207;-74
2020/12/25 06:25:52;;;;;;;6.27;5.77;;;3.40;99.90;;;;;;5042821;28;20217;-74
2020/12/25 06:28:19;;;;;;;6.40;5.90;;;3.40;99.90;;;;;;5022053;28;20193;-74
2020/12/25 06:30:45;;;;;;;7.00;6.40;;;3.40;99.90;;;;;;5045797;28;20635;-74
2020/12/25 06:33:11;;;;;;;6.93;6.33;;;3.40;99.90;;;;;;5046902;28;20564;-74
2020/12/25 06:35:41;;;;;;;6.40;5.90;;;3.40;99.90;;;;;;5044067;28;20217;-74
2020/12/25 06:38:15;;;;;;;8.27;7.57;;;3.40;99.90;;;;;;5041035;28;20542;-74
2020/12/25 06:40:41;;;;;;;8.97;8.17;;;3.40;99.90;;;;;;5036466;28;20204;-74
2020/12/25 06:43:18;;;;;;;8.57;7.77;;;3.30;99.90;;;;;;5039992;28;20220;-73
2020/12/25 06:46:03;;;;;;;9.27;8.30;;;3.40;99.90;;;;;;5045934;28;20711;-74
2020/12/25 06:48:29;;;;;;;7.77;6.97;;;3.40;99.90;;;;;;5038261;28;20219;-74
2020/12/25 06:50:57;;;;;;;7.90;7.30;;;3.40;99.90;;;;;;5040834;28;20192;-73
2020/12/25 06:53:40;;;;;;;7.93;7.13;;;3.40;99.90;;;;;;5044686;28;20623;-73
2020/12/25 06:56:26;;;;;;;7.57;6.90;;;3.30;99.90;;;;;;5033724;28;20609;-74
2020/12/25 06:58:54;;;;;;;8.40;7.53;;;3.30;99.90;;;;;;5038809;28;20270;-74
2020/12/25 07:01:52;;;;;;;8.70;7.87;;;3.40;99.90;;;;;;5047107;28;20268;-74
2020/12/25 07:04:25;;;;;;;8.27;7.47;;;3.40;99.90;;;;;;4967867;28;20260;-73
2020/12/25 07:06:55;;;;;;;8.20;7.50;;;3.40;99.90;;;;;;4956693;28;20206;-73
2020/12/25 07:09:20;;;;;;;7.57;6.97;;;3.40;99.90;;;;;;4968949;28;20828;-74
2020/12/25 07:11:52;;;;;;;8.17;7.37;;;3.40;99.90;;;;;;4969461;28;20297;-73
2020/12/25 07:14:19;;;;;;;8.10;7.40;;;3.40;99.90;;;;;;4970141;28;20211;-73
2020/12/25 07:16:44;;;;;;;6.87;6.27;;;3.40;99.90;;;;;;4970320;28;20182;-74
2020/12/25 07:19:10;;;;;;;7.23;6.53;;;3.40;99.90;;;;;;4968601;28;20582;-76
2020/12/25 07:21:38;;;;;;;7.03;6.43;;;3.40;99.90;;;;;;4968568;28;20214;-73
2020/12/25 07:24:03;;;;;;;7.43;6.63;;;3.40;99.90;;;;;;4967990;28;20244;-73
2020/12/25 07:26:29;;;;;;;7.53;6.87;;;3.40;99.90;;;;;;4968810;28;20263;-73
2020/12/25 07:28:56;;;;;;;6.93;6.23;;;3.30;99.90;;;;;;4970658;28;20683;-73
2020/12/25 07:31:22;;;;;;;7.60;5.67;;;3.30;99.90;;;;;;4969999;28;20264;-73
2020/12/25 07:33:54;;;;;;;6.83;5.93;;;3.30;99.90;;;;;;4968135;28;20218;-73
2020/12/25 07:36:20;;;;;;;6.67;5.97;;;3.30;99.90;;;;;;4969493;28;20191;-73
2020/12/25 07:38:45;;;;;;;6.63;6.03;;;3.30;99.90;;;;;;4970268;28;20697;-72
2020/12/25 07:41:11;;;;;;;7.63;6.83;;;3.30;99.90;;;;;;5040650;28;20216;-73
2020/12/25 07:43:36;;;;;;;7.07;6.47;;;3.20;99.90;;;;;;5037741;28;20210;-73
2020/12/25 07:46:02;;;;;;;6.17;5.67;;;3.20;99.90;;;;;;5035995;28;20646;-73
2020/12/25 07:48:28;;;;;;;5.67;5.23;;;3.20;99.90;;;;;;5036376;28;20193;-73
2020/12/25 07:50:55;;;;;;;6.10;5.03;;;3.10;99.90;;;;;;5048826;28;20190;-73
2020/12/25 07:53:21;;;;;;;5.80;5.30;;;3.10;99.90;;;;;;5049554;28;20255;-73
2020/12/25 07:55:49;;;;;;;8.73;6.27;;;3.10;99.90;;;;;;5044110;28;20186;-71
2020/12/25 07:58:17;;;;;;;6.00;5.40;;;3.10;99.90;;;;;;5046154;28;20235;-72
2020/12/25 08:00:43;;;;;;;5.57;5.07;;;3.10;99.90;;;;;;5050089;28;20201;-73
2020/12/25 08:03:11;;;;;;;6.40;5.73;;;3.00;99.90;;;;;;5045491;28;20212;-72
2020/12/25 08:05:36;;;;;;;6.57;5.97;;;3.00;99.90;;;;;;5048240;28;20190;-75
2020/12/25 08:08:03;;;;;;;6.67;6.07;;;3.00;99.90;;;;;;5046527;28;20191;-73
2020/12/25 08:10:30;;;;;;;6.50;5.90;;;3.00;99.90;;;;;;5049944;28;20183;-74
2020/12/25 08:13:00;;;;;;;6.73;6.13;;;3.00;99.90;;;;;;5049904;28;20641;-74
2020/12/25 08:15:26;;;;;;;6.13;5.53;;;3.10;99.90;;;;;;5046549;28;20550;-74
2020/12/25 08:17:54;;;;;;;5.50;5.00;;;3.10;99.90;;;;;;5051168;28;20181;-73
2020/12/25 08:20:22;;;;;;;5.23;4.73;;;3.10;99.90;;;;;;5044967;28;20176;-72
2020/12/25 08:22:49;;;;;;;5.70;5.20;;;3.10;99.90;;;;;;5050309;28;20211;-72
2020/12/25 08:25:15;;;;;;;5.90;5.40;;;3.10;99.90;;;;;;5049529;28;20293;-72
2020/12/25 08:27:41;;;;;;;5.83;5.33;;;3.10;99.90;;;;;;5046325;28;20214;-72
2020/12/25 08:30:07;;;;;;;6.13;5.63;;;3.20;99.90;;;;;;5041507;28;20692;-72
2020/12/25 08:32:33;;;;;;;6.13;5.53;;;3.20;99.90;;;;;;5049450;28;20214;-73
2020/12/25 08:35:16;;;;;;;6.70;6.00;;;3.20;99.90;;;;;;5042936;28;20876;-71
2020/12/25 08:38:04;;;;;;;5.87;5.37;;;3.20;99.90;;;;;;5042119;28;20168;-70
2020/12/25 08:40:39;;;;;;;5.90;5.40;;;3.20;99.90;;;;;;5034628;28;20192;-71
2020/12/25 08:43:10;;;;;;;7.23;5.90;;;3.20;99.90;;;;;;5044841;28;20207;-71
2020/12/25 08:45:52;;;;;;;7.37;6.77;;;3.20;99.90;;;;;;5045894;28;20202;-71
2020/12/25 08:48:18;;;;;;;7.20;6.50;;;3.30;99.90;;;;;;5031389;28;20250;-70
2020/12/25 08:50:43;;;;;;;8.17;6.80;;;3.30;99.90;;;;;;5047528;28;20194;-72
2020/12/25 08:53:18;;;;;;;8.03;7.23;;;3.30;99.90;;;;;;5050346;28;20211;-73
2020/12/25 08:55:45;;;;;;;8.40;7.63;;;3.30;99.90;;;;;;5045657;28;20182;-72
2020/12/25 08:58:11;;;;;;;8.43;7.33;;;3.30;99.90;;;;;;5046593;28;20174;-72
2020/12/25 09:00:37;;;;;;;8.57;7.87;;;3.30;99.90;;;;;;5042850;28;20306;-72
2020/12/25 09:03:03;;;;;;;8.40;7.60;;;3.30;99.90;;;;;;5049915;28;20208;-71
2020/12/25 09:05:29;;;;;;;8.77;7.97;;;3.30;99.90;;;;;;5046236;28;20185;-72
2020/12/25 09:07:54;;;;;;;9.93;8.90;;;3.30;99.90;;;;;;5047200;28;20188;-71
2020/12/25 09:10:20;;;;;;;9.40;8.50;;;3.30;99.90;;;;;;5043442;28;20186;-73
2020/12/25 09:12:46;;;;;;;9.20;8.30;;;3.30;99.90;;;;;;5039014;28;20780;-71
2020/12/25 09:15:11;;;;;;;10.03;9.13;;;3.30;99.90;;;;;;5040694;28;20204;-74
2020/12/25 09:17:37;;;;;;;11.40;10.20;;;3.30;99.90;;;;;;5049073;28;20210;-73
2020/12/25 09:20:04;;;;;;;12.10;10.90;;;3.40;99.90;;;;;;5040571;28;20272;-74
2020/12/25 09:22:29;;;;;;;12.03;10.83;;;3.40;99.90;;;;;;5047257;28;20226;-74
2020/12/25 09:24:55;;;;;;;12.73;11.13;;;3.50;99.90;;;;;;5051881;28;20688;-73
2020/12/25 09:27:20;;;;;;;12.43;11.23;;;3.50;99.90;;;;;;5051972;28;20686;-73
2020/12/25 09:29:46;;;;;;;12.90;10.80;;;3.50;99.90;;;;;;5047871;28;20224;-74
2020/12/25 09:32:11;;;;;;;13.00;11.23;;;3.50;99.90;;;;;;5025146;28;20220;-72
2020/12/25 09:34:37;;;;;;;13.53;11.93;;;3.60;99.90;;;;;;5043430;28;20186;-73
2020/12/25 09:37:03;;;;;;;14.23;12.73;;;3.60;99.90;;;;;;5031737;28;20280;-73
2020/12/25 09:39:28;;;;;;;15.93;13.27;;;3.70;99.90;;;;;;5047091;28;20169;-72
2020/12/25 09:41:54;;;;;;;14.47;12.63;;;3.70;99.90;;;;;;5041829;28;20589;-72
2020/12/25 09:44:19;;;;;;;13.40;12.00;;;3.70;99.90;;;;;;5041943;28;20191;-74
2020/12/25 09:46:45;;;;;;;13.47;11.77;;;3.70;99.90;;;;;;5049507;28;20690;-74
2020/12/25 09:49:11;;;;;;;12.30;11.00;;;3.70;99.90;;;;;;5045454;28;20185;-73
2020/12/25 09:51:36;;;;;;;12.93;11.53;;;3.80;99.90;;;;;;5041889;28;20711;-73
2020/12/25 09:54:02;;;;;;;14.43;12.10;;;3.80;99.90;;;;;;5024662;28;20213;-73
2020/12/25 09:56:27;;;;;;;13.40;11.80;;;3.80;99.90;;;;;;5046530;28;20188;-73
2020/12/25 09:58:53;;;;;;;14.57;12.00;;;3.80;99.90;;;;;;5052194;28;20187;-75
2020/12/25 10:01:19;;;;;;;11.33;10.23;;;3.80;99.90;;;;;;5051006;28;20185;-73
2020/12/25 10:03:45;;;;;;;12.20;10.90;;;3.80;99.90;;;;;;5039363;28;20207;-72
2020/12/25 10:06:11;;;;;;;11.37;10.17;;;3.90;99.90;;;;;;5042478;28;20181;-73
2020/12/25 10:08:36;;;;;;;10.57;9.57;;;3.80;99.90;;;;;;5025950;28;20185;-75
2020/12/25 10:11:02;;;;;;;11.60;10.47;;;3.90;99.90;;;;;;5039755;28;20185;-73
2020/12/25 10:13:28;;;;;;;12.10;9.53;;;3.80;99.90;;;;;;5043786;28;20223;-74
2020/12/25 10:15:53;;;;;;;13.87;10.70;;;3.90;99.90;;;;;;5046841;28;20589;-74
2020/12/25 10:18:19;;;;;;;10.43;9.40;;;3.90;99.90;;;;;;5039495;28;20186;-71
2020/12/25 10:20:46;;;;;;;11.37;9.87;;;4.00;99.90;;;;;;5043063;28;20171;-71
2020/12/25 10:23:12;;;;;;;15.03;11.60;;;4.10;99.90;;;;;;5042783;28;20198;-73
2020/12/25 10:25:38;;;;;;;10.07;9.07;;;4.10;99.90;;;;;;5043530;28;20590;-73
2020/12/25 10:28:03;;;;;;;10.87;9.70;;;4.20;99.90;;;;;;5051166;28;20269;-73
2020/12/25 10:30:29;;;;;;;11.27;9.40;;;4.20;99.90;;;;;;5039151;28;20186;-72
2020/12/25 10:32:54;;;;;;;11.40;9.77;;;4.20;99.90;;;;;;5047166;28;20211;-73
2020/12/25 10:35:20;;;;;;;9.67;8.67;;;4.20;99.90;;;;;;5040684;28;20278;-73
2020/12/25 10:37:45;;;;;;;11.93;8.57;;;4.30;99.90;;;;;;5041016;28;20692;-73
2020/12/25 10:40:11;;;;;;;10.50;9.10;;;4.30;99.90;;;;;;5043714;28;20233;-73
2020/12/25 10:42:37;;;;;;;19.50;11.87;;;4.30;99.90;;;;;;5040624;28;20691;-73
2020/12/25 10:45:03;;;;;;;9.77;8.77;;;4.30;99.90;;;;;;5043994;28;20189;-73
2020/12/25 10:47:28;;;;;;;10.47;8.63;;;4.40;99.90;;;;;;5045223;28;20270;-74
2020/12/25 10:49:54;;;;;;;8.97;8.03;;;4.50;99.90;;;;;;5042845;28;20254;-75
2020/12/25 10:52:20;;;;;;;8.87;7.50;;;4.80;99.90;;;;;;5044092;28;20214;-73
2020/12/25 10:54:45;;;;;;;7.70;6.90;;;5.10;99.90;;;;;;5047883;28;20238;-74
2020/12/25 10:57:11;;;;;;;7.27;6.57;;;5.40;99.10;;;;;;5043963;28;20663;-74
2020/12/25 10:59:36;;;;;;;6.83;6.23;;;5.60;98.40;;;;;;5041733;28;20182;-73
2020/12/25 11:02:02;;;;;;;6.67;6.03;;;5.80;97.30;;;;;;5038903;28;20641;-73
2020/12/25 11:04:28;;;;;;;8.47;7.67;;;5.70;96.80;;;;;;5044094;28;20189;-73
2020/12/25 11:06:53;;;;;;;8.63;7.80;;;5.30;97.60;;;;;;5042723;28;20196;-73
2020/12/25 11:09:19;;;;;;;9.10;7.93;;;5.20;98.20;;;;;;5039385;28;20266;-73
2020/12/25 11:11:44;;;;;;;7.60;6.90;;;5.10;98.30;;;;;;5041934;28;20203;-73
2020/12/25 11:14:10;;;;;;;8.67;7.80;;;4.90;98.40;;;;;;5038869;28;20204;-73
2020/12/25 11:16:37;;;;;;;9.67;7.83;;;4.80;98.80;;;;;;5038235;28;20324;-73
2020/12/25 11:19:08;;;;;;;10.80;8.70;;;4.80;99.60;;;;;;5048027;28;20183;-73
2020/12/25 11:21:34;;;;;;;10.03;7.40;;;4.70;99.90;;;;;;5044543;28;20190;-72
2020/12/25 11:24:01;;;;;;;8.40;7.60;;;4.70;99.90;;;;;;5035495;28;20221;-74
2020/12/25 11:26:29;;;;;;;8.50;7.67;;;4.70;99.90;;;;;;5043597;28;20215;-74
2020/12/25 11:28:59;;;;;;;8.43;7.53;;;4.70;99.90;;;;;;5039686;28;20194;-74
2020/12/25 11:31:26;;;;;;;7.53;6.83;;;4.70;99.90;;;;;;5042122;28;20197;-74
2020/12/25 11:33:53;;;;;;;9.30;6.87;;;4.60;99.90;;;;;;5045642;28;20204;-72
2020/12/25 11:36:23;;;;;;;9.93;7.67;;;4.50;99.90;;;;;;5051755;28;20205;-74
2020/12/25 11:38:49;;;;;;;9.57;7.93;;;4.50;99.90;;;;;;5040394;28;20278;-73
2020/12/25 11:41:17;;;;;;;8.80;7.70;;;4.50;99.90;;;;;;5048854;28;20279;-74
2020/12/25 11:43:43;;;;;;;10.30;9.30;;;4.50;99.90;;;;;;5040873;28;20285;-73
2020/12/25 11:46:09;;;;;;;13.07;8.87;;;4.50;99.90;;;;;;5038161;28;20339;-73
2020/12/25 11:48:36;;;;;;;8.93;8.03;;;4.50;99.90;;;;;;5024316;28;20191;-72
2020/12/25 11:51:02;;;;;;;9.43;7.90;;;4.40;99.90;;;;;;5038304;28;20213;-73
2020/12/25 11:53:28;;;;;;;8.33;7.43;;;4.40;99.90;;;;;;5038451;28;20202;-73
2020/12/25 11:55:54;;;;;;;9.03;7.47;;;4.40;99.60;;;;;;5048434;28;20185;-73
2020/12/25 11:58:20;;;;;;;7.43;6.63;;;4.40;99.20;;;;;;5043632;28;20180;-72
2020/12/25 12:00:45;;;;;;;8.40;7.07;;;4.40;99.10;;;;;;5049863;28;20193;-73
2020/12/25 12:03:11;;;;;;;8.90;7.37;;;4.60;99.40;;;;;;5039407;28;20218;-73
2020/12/25 12:05:41;;;;;;;8.67;7.73;;;4.60;99.40;;;;;;5043775;28;20236;-73
2020/12/25 12:08:07;;;;;;;7.17;6.57;;;4.60;98.80;;;;;;5044206;28;20234;-73
2020/12/25 12:10:33;;;;;;;7.13;6.43;;;4.60;98.20;;;;;;5038734;28;20182;-72
2020/12/25 12:12:59;;;;;;;7.60;6.77;;;4.60;97.90;;;;;;5038901;28;20215;-72
2020/12/25 12:15:24;;;;;;;7.47;6.70;;;4.60;97.70;;;;;;5041983;28;20189;-72
2020/12/25 12:17:50;;;;;;;7.60;6.80;;;4.70;97.80;;;;;;5048790;28;20199;-72
2020/12/25 12:20:16;;;;;;;7.07;6.40;;;4.80;97.30;;;;;;5049943;28;20187;-72
2020/12/25 12:22:41;;;;;;;7.30;6.60;;;4.80;97.40;;;;;;5048777;28;20207;-73
2020/12/25 12:25:08;;;;;;;7.07;6.37;;;4.80;97.50;;;;;;5042961;28;20211;-72
2020/12/25 12:27:34;;;;;;;7.13;6.27;;;4.70;97.40;;;;;;5025243;28;20193;-72
2020/12/25 12:30:02;;;;;;;7.20;6.50;;;4.80;97.60;;;;;;5043928;28;20196;-72
2020/12/25 12:32:28;;;;;;;9.93;6.93;;;4.70;97.40;;;;;;5046961;28;20222;-73
2020/12/25 12:34:54;;;;;;;8.30;6.70;;;4.70;97.80;;;;;;5052517;28;20187;-72
2020/12/25 12:37:19;;;;;;;9.80;6.60;;;4.60;97.60;;;;;;5046232;28;20214;-72
2020/12/25 12:39:45;;;;;;;7.70;6.43;;;4.60;98.10;;;;;;5049267;28;20229;-72
2020/12/25 12:42:10;;;;;;;9.73;6.87;;;4.50;98.10;;;;;;5042746;28;20230;-72
2020/12/25 12:44:36;;;;;;;8.17;6.10;;;4.60;97.90;;;;;;5048553;28;20248;-73
2020/12/25 12:47:02;;;;;;;7.90;6.40;;;4.60;97.50;;;;;;5045182;28;20228;-72
2020/12/25 12:49:27;;;;;;;10.40;6.77;;;4.50;97.60;;;;;;5049863;28;20190;-72
2020/12/25 12:51:53;;;;;;;9.80;6.93;;;4.50;97.90;;;;;;5047465;28;20206;-72
2020/12/25 12:54:18;;;;;;;7.97;7.03;;;4.40;97.60;;;;;;5042785;28;20180;-73
2020/12/25 12:56:44;;;;;;;6.37;5.67;;;4.40;97.90;;;;;;5045668;28;20274;-72